Time;durP1;ratioP1;P1;durP2;ratioP2;P2;SDS_P1;SDS_P2;PMS_P1;PMS_P2;Temp;Humidity;BMP_temperature;BMP_pressure;BME280_temperature;BME280_humidity;BME280_pressure;Samples;Min_cycle;Max_cycle;Signal;HPM_P1;HPM_P2
2023/01/06 00:00:06;;;;;;;6.50;3.73;;;;;;;;;;5062387;27;87020;-55
2023/01/06 00:02:35;;;;;;;4.27;3.40;;;;;;;;;;5061918;27;88145;-56
2023/01/06 00:05:03;;;;;;;5.37;3.80;;;;;;;;;;5062120;27;87920;-56
2023/01/06 00:07:32;;;;;;;3.57;3.10;;;;;;;;;;5062101;27;87013;-56
2023/01/06 00:10:00;;;;;;;3.60;3.27;;;;;;;;;;5062260;27;86331;-56
2023/01/06 00:12:28;;;;;;;5.63;3.20;;;;;;;;;;5061825;27;88996;-56
2023/01/06 00:14:58;;;;;;;4.03;3.07;;;;;;;;;;5061635;27;87947;-56
2023/01/06 00:17:26;;;;;;;3.17;2.20;;;;;;;;;;5061582;27;87997;-56
2023/01/06 00:19:55;;;;;;;2.60;2.30;;;;;;;;;;5061317;27;87090;-56
2023/01/06 00:22:23;;;;;;;4.57;2.57;;;;;;;;;;5062110;27;88125;-56
2023/01/06 00:24:52;;;;;;;2.67;1.97;;;;;;;;;;5061952;27;88553;-56
2023/01/06 00:27:20;;;;;;;2.20;1.80;;;;;;;;;;5061632;27;86869;-56
2023/01/06 00:29:49;;;;;;;3.17;2.27;;;;;;;;;;5061477;27;87080;-56
2023/01/06 00:32:19;;;;;;;2.73;1.80;;;;;;;;;;5061861;27;89336;-56
2023/01/06 00:34:47;;;;;;;2.73;1.77;;;;;;;;;;5060754;27;87824;-57
2023/01/06 00:37:16;;;;;;;1.70;1.60;;;;;;;;;;5062011;27;87107;-56
2023/01/06 00:39:44;;;;;;;2.73;1.80;;;;;;;;;;5061957;27;86967;-57
2023/01/06 00:42:12;;;;;;;2.80;1.63;;;;;;;;;;5060741;27;87982;-57
2023/01/06 00:44:41;;;;;;;2.73;1.67;;;;;;;;;;5056858;27;88662;-56
2023/01/06 00:47:09;;;;;;;2.97;2.10;;;;;;;;;;5050950;27;86957;-57
2023/01/06 00:49:39;;;;;;;3.67;2.43;;;;;;;;;;5082148;27;87039;-57
2023/01/06 00:52:08;;;;;;;6.87;2.63;;;;;;;;;;5059405;27;88287;-56
2023/01/06 00:54:36;;;;;;;5.80;3.23;;;;;;;;;;5070630;27;87028;-56
2023/01/06 00:57:06;;;;;;;5.93;4.60;;;;;;;;;;5062945;27;87011;-56
2023/01/06 00:59:34;;;;;;;4.73;3.20;;;;;;;;;;5061715;27;86230;-56
2023/01/06 01:02:02;;;;;;;5.73;3.17;;;;;;;;;;5061285;27;88215;-56
2023/01/06 01:04:31;;;;;;;5.67;3.63;;;;;;;;;;5061762;27;87028;-58
2023/01/06 01:07:01;;;;;;;4.93;3.47;;;;;;;;;;5060739;27;87740;-56
2023/01/06 01:09:29;;;;;;;5.43;4.13;;;;;;;;;;5061368;27;86868;-56
2023/01/06 01:12:10;;;;;;;5.03;3.00;;;;;;;;;;5060864;27;89196;-56
2023/01/06 01:14:39;;;;;;;4.97;3.77;;;;;;;;;;5040916;27;87970;-56
2023/01/06 01:17:08;;;;;;;7.33;3.80;;;;;;;;;;5041518;27;88465;-56
2023/01/06 01:19:36;;;;;;;5.10;3.60;;;;;;;;;;5041005;28;87036;-56
2023/01/06 01:22:06;;;;;;;3.60;3.00;;;;;;;;;;5040577;28;88108;-56
2023/01/06 01:24:34;;;;;;;3.53;2.60;;;;;;;;;;5041228;28;88772;-56
2023/01/06 01:27:02;;;;;;;3.70;2.63;;;;;;;;;;5046319;27;87099;-56
2023/01/06 01:29:31;;;;;;;4.00;3.17;;;;;;;;;;5060951;27;87148;-56
2023/01/06 01:31:59;;;;;;;5.30;2.73;;;;;;;;;;5060641;27;88993;-57
2023/01/06 01:34:27;;;;;;;4.43;2.33;;;;;;;;;;5060870;27;89804;-56
2023/01/06 01:36:56;;;;;;;4.67;2.97;;;;;;;;;;5055448;27;87060;-55
2023/01/06 01:39:26;;;;;;;4.63;2.10;;;;;;;;;;5044864;27;88957;-56
2023/01/06 01:41:55;;;;;;;2.73;2.17;;;;;;;;;;5068483;27;88154;-56
2023/01/06 01:44:42;;;;;;;2.40;1.63;;;;;;;;;;5082210;27;88762;-56
2023/01/06 01:47:10;;;;;;;4.37;2.80;;;;;;;;;;5064270;27;88667;-56
2023/01/06 01:49:39;;;;;;;2.53;1.80;;;;;;;;;;5064881;27;86337;-56
2023/01/06 01:52:08;;;;;;;4.27;1.80;;;;;;;;;;5064541;27;88095;-56
2023/01/06 01:54:37;;;;;;;2.83;2.10;;;;;;;;;;5063976;27;87799;-56
2023/01/06 01:57:06;;;;;;;2.17;1.70;;;;;;;;;;5064319;27;88082;-56
2023/01/06 01:59:34;;;;;;;2.50;2.00;;;;;;;;;;5084849;27;87067;-57
2023/01/06 02:02:03;;;;;;;4.23;2.07;;;;;;;;;;5084993;27;89285;-56
2023/01/06 02:04:31;;;;;;;3.93;1.80;;;;;;;;;;5084727;27;88847;-56
2023/01/06 02:07:00;;;;;;;2.47;1.87;;;;;;;;;;5071558;27;87115;-56
2023/01/06 02:09:29;;;;;;;3.03;1.77;;;;;;;;;;5063767;27;86894;-56
2023/01/06 02:11:58;;;;;;;3.63;1.97;;;;;;;;;;5063565;27;88156;-56
2023/01/06 02:14:27;;;;;;;2.70;2.07;;;;;;;;;;5063456;27;88044;-56
2023/01/06 02:17:00;;;;;;;1.30;1.20;;;;;;;;;;5048202;27;88963;-56
2023/01/06 02:19:36;;;;;;;2.53;1.40;;;;;;;;;;5046848;27;88354;-56
2023/01/06 02:22:10;;;;;;;3.13;1.03;;;;;;;;;;5050367;27;89744;-56
2023/01/06 02:24:51;;;;;;;1.27;1.17;;;;;;;;;;5061653;27;88536;-56
2023/01/06 02:27:29;;;;;;;3.47;2.13;;;;;;;;;;5062527;27;87229;-56
2023/01/06 02:30:21;;;;;;;2.57;1.50;;;;;;;;;;5044420;27;87084;-56
2023/01/06 02:32:53;;;;;;;1.47;1.07;;;;;;;;;;5042936;27;88077;-56
2023/01/06 02:35:26;;;;;;;1.53;1.13;;;;;;;;;;5043419;27;87847;-56
2023/01/06 02:37:56;;;;;;;2.40;1.40;;;;;;;;;;5044309;27;87031;-56
2023/01/06 02:40:31;;;;;;;1.50;1.30;;;;;;;;;;5061207;27;86362;-56
2023/01/06 02:43:01;;;;;;;1.77;1.60;;;;;;;;;;5055515;27;89013;-56
2023/01/06 02:45:32;;;;;;;5.23;1.13;;;;;;;;;;5051916;27;87824;-56
2023/01/06 02:48:02;;;;;;;1.40;1.30;;;;;;;;;;5062533;27;87930;-56
2023/01/06 02:50:34;;;;;;;1.97;1.10;;;;;;;;;;5061464;27;86943;-56
2023/01/06 02:53:04;;;;;;;1.93;1.30;;;;;;;;;;5049825;27;89202;-56
2023/01/06 02:55:33;;;;;;;1.63;1.07;;;;;;;;;;5058602;27;87593;-56
2023/01/06 02:58:02;;;;;;;2.97;1.50;;;;;;;;;;5050769;27;87044;-56
2023/01/06 03:00:31;;;;;;;1.77;1.30;;;;;;;;;;5050731;27;86976;-56
2023/01/06 03:03:03;;;;;;;1.23;1.03;;;;;;;;;;5056825;27;89233;-57
2023/01/06 03:05:31;;;;;;;2.87;1.53;;;;;;;;;;5062671;27;88873;-56
2023/01/06 03:08:00;;;;;;;1.00;1.00;;;;;;;;;;5046468;27;87026;-58
2023/01/06 03:10:28;;;;;;;0.87;0.83;;;;;;;;;;5043731;27;87005;-56
2023/01/06 03:12:57;;;;;;;1.20;1.03;;;;;;;;;;5043809;27;89993;-56
2023/01/06 03:15:25;;;;;;;0.70;0.70;;;;;;;;;;5059049;27;89462;-56
2023/01/06 03:17:54;;;;;;;4.33;0.97;;;;;;;;;;5062245;27;87030;-56
2023/01/06 03:20:23;;;;;;;0.70;0.70;;;;;;;;;;5057685;27;86887;-56
2023/01/06 03:22:52;;;;;;;1.13;0.70;;;;;;;;;;5042315;28;89352;-56
2023/01/06 03:25:20;;;;;;;3.27;1.00;;;;;;;;;;5046315;27;87924;-56
2023/01/06 03:27:48;;;;;;;0.73;0.70;;;;;;;;;;5054972;27;87073;-56
2023/01/06 03:30:16;;;;;;;0.73;0.73;;;;;;;;;;5044150;27;86334;-56
2023/01/06 03:32:48;;;;;;;0.93;0.80;;;;;;;;;;5062629;27;87874;-56
2023/01/06 03:35:20;;;;;;;1.23;1.00;;;;;;;;;;5061481;27;88818;-56
2023/01/06 03:37:53;;;;;;;1.60;0.73;;;24.20;43.10;;;;;;5052930;27;90109;-56
2023/01/06 03:40:28;;;;;;;0.60;0.57;;;24.20;43.70;;;;;;5043345;27;86968;-56
2023/01/06 03:43:12;;;;;;;0.80;0.80;;;24.10;43.70;;;;;;5043542;27;88097;-56
2023/01/06 03:45:55;;;;;;;1.00;0.90;;;24.10;43.80;;;;;;5049738;27;88895;-56
2023/01/06 03:48:29;;;;;;;1.87;0.83;;;24.00;43.80;;;;;;5060546;27;87002;-56
2023/01/06 03:51:00;;;;;;;1.90;1.17;;;24.00;43.80;;;;;;5061395;27;87302;-56
2023/01/06 03:53:33;;;;;;;1.17;0.80;;;24.00;43.80;;;;;;5055566;27;88092;-56
2023/01/06 03:56:06;;;;;;;0.70;0.70;;;24.00;43.90;;;;;;5048976;27;87474;-56
2023/01/06 03:58:34;;;;;;;1.20;0.90;;;24.00;43.90;;;;;;5061573;27;86963;-56
2023/01/06 04:01:02;;;;;;;0.60;0.60;;;24.00;43.90;;;;;;5055899;27;87444;-56
2023/01/06 04:03:30;;;;;;;0.97;0.60;;;24.00;44.60;;;;;;5041283;28;88714;-55
2023/01/06 04:05:58;;;;;;;0.50;0.43;;;24.00;43.90;;;;;;5043562;27;89813;-56
2023/01/06 04:08:26;;;;;;;1.03;0.63;;;23.90;43.90;;;;;;5062178;27;86926;-56
2023/01/06 04:10:55;;;;;;;1.13;0.93;;;23.90;43.90;;;;;;5049290;27;86889;-56
2023/01/06 04:13:22;;;;;;;1.20;0.77;;;23.90;43.90;;;;;;5042285;27;88168;-56
2023/01/06 04:15:50;;;;;;;1.00;0.80;;;23.90;43.90;;;;;;5051626;27;88004;-56
2023/01/06 04:18:18;;;;;;;0.73;0.73;;;23.90;43.90;;;;;;5062246;27;86947;-56
2023/01/06 04:20:46;;;;;;;0.87;0.83;;;23.80;43.90;;;;;;5055794;27;86247;-57
2023/01/06 04:23:14;;;;;;;0.40;0.40;;;23.80;43.90;;;;;;5041218;27;88106;-56
2023/01/06 04:25:42;;;;;;;0.60;0.60;;;23.80;44.00;;;;;;5043864;27;87138;-56
2023/01/06 04:28:13;;;;;;;1.20;0.67;;;23.80;43.90;;;;;;5060912;27;87833;-56
2023/01/06 04:30:41;;;;;;;0.53;0.53;;;23.80;44.00;;;;;;5059801;27;87088;-56
2023/01/06 04:33:09;;;;;;;1.60;0.80;;;23.80;44.00;;;;;;5045198;27;87133;-56
2023/01/06 04:35:37;;;;;;;0.80;0.60;;;23.80;44.00;;;;;;5041426;27;88994;-56
2023/01/06 04:38:05;;;;;;;0.97;0.83;;;23.80;44.00;;;;;;5057951;27;87045;-56
2023/01/06 04:40:33;;;;;;;1.03;0.30;;;23.80;44.00;;;;;;5053444;27;87056;-56
2023/01/06 04:43:12;;;;;;;1.23;0.37;;;23.70;44.00;;;;;;5042552;27;88087;-56
2023/01/06 04:45:41;;;;;;;1.93;0.70;;;23.70;44.70;;;;;;5043825;27;87706;-57
2023/01/06 04:48:09;;;;;;;0.50;0.40;;;23.70;44.00;;;;;;5041774;27;86995;-56
2023/01/06 04:50:37;;;;;;;0.40;0.40;;;23.70;44.10;;;;;;5041994;27;86985;-56
2023/01/06 04:53:06;;;;;;;0.40;0.40;;;23.70;44.70;;;;;;5056409;27;89023;-56
2023/01/06 04:55:36;;;;;;;0.57;0.57;;;23.70;44.10;;;;;;5049273;27;89885;-56
2023/01/06 04:58:04;;;;;;;0.30;0.30;;;23.60;44.00;;;;;;5041056;27;86978;-56
2023/01/06 05:00:32;;;;;;;0.50;0.50;;;23.60;44.00;;;;;;5040917;27;86989;-55
2023/01/06 05:03:02;;;;;;;0.30;0.30;;;23.60;44.00;;;;;;5056506;27;88904;-56
2023/01/06 05:05:30;;;;;;;1.17;0.67;;;23.60;44.00;;;;;;5050396;27;88972;-55
2023/01/06 05:07:58;;;;;;;0.70;0.70;;;23.60;44.10;;;;;;5041022;27;87914;-57
2023/01/06 05:10:26;;;;;;;0.80;0.60;;;23.60;44.10;;;;;;5042596;27;86364;-56
2023/01/06 05:12:54;;;;;;;0.47;0.47;;;23.60;44.10;;;;;;5049597;27;91825;-56
2023/01/06 05:15:22;;;;;;;2.90;0.40;;;23.60;44.10;;;;;;5053339;27;88963;-56
2023/01/06 05:17:50;;;;;;;1.07;0.50;;;23.50;44.10;;;;;;5049414;27;88038;-56
2023/01/06 05:20:19;;;;;;;0.93;0.50;;;23.50;44.10;;;;;;5064446;27;87032;-56
2023/01/06 05:22:47;;;;;;;0.53;0.50;;;23.50;44.10;;;;;;5063728;27;89112;-56
2023/01/06 05:25:15;;;;;;;0.47;0.47;;;23.50;44.10;;;;;;5064525;27;88009;-56
2023/01/06 05:27:43;;;;;;;1.30;0.50;;;23.50;44.10;;;;;;5064670;27;86820;-56
2023/01/06 05:30:12;;;;;;;1.23;0.47;;;23.50;44.10;;;;;;5062782;27;87097;-57
2023/01/06 05:32:40;;;;;;;0.90;0.50;;;23.40;44.10;;;;;;5063111;27;89287;-56
2023/01/06 05:35:09;;;;;;;0.70;0.40;;;23.40;44.80;;;;;;5048424;27;88994;-56
2023/01/06 05:37:38;;;;;;;0.30;0.30;;;23.40;44.10;;;;;;5062859;27;87026;-56
2023/01/06 05:40:08;;;;;;;0.47;0.47;;;23.40;44.10;;;;;;5064521;27;87053;-56
2023/01/06 05:42:36;;;;;;;0.47;0.47;;;23.40;44.10;;;;;;5052065;27;89129;-56
2023/01/06 05:45:04;;;;;;;1.40;0.47;;;23.40;44.20;;;;;;5054703;27;89876;-56
2023/01/06 05:47:32;;;;;;;0.30;0.30;;;23.40;44.20;;;;;;5063617;27;87150;-56
2023/01/06 05:50:00;;;;;;;0.60;0.30;;;23.40;44.20;;;;;;5043595;28;87133;-56
2023/01/06 05:52:28;;;;;;;0.40;0.33;;;23.40;44.20;;;;;;5043758;28;88112;-57
2023/01/06 05:54:58;;;;;;;1.70;0.50;;;23.30;44.20;;;;;;5056177;27;87861;-56
2023/01/06 05:57:26;;;;;;;0.40;0.40;;;23.30;44.20;;;;;;5062607;27;86983;-56
2023/01/06 05:59:53;;;;;;;0.40;0.40;;;23.40;44.30;;;;;;5057076;27;86292;-56
2023/01/06 06:02:23;;;;;;;1.03;0.50;;;23.30;44.20;;;;;;5043292;27;88954;-55
2023/01/06 06:04:51;;;;;;;0.20;0.20;;;23.30;44.30;;;;;;5045098;27;88997;-55
2023/01/06 06:07:19;;;;;;;0.40;0.30;;;23.30;44.30;;;;;;5060723;27;87964;-55
2023/01/06 06:09:47;;;;;;;0.40;0.40;;;23.30;44.30;;;;;;5051701;27;87005;-56
2023/01/06 06:12:16;;;;;;;0.23;0.23;;;23.30;44.30;;;;;;5043517;27;87949;-56
2023/01/06 06:14:44;;;;;;;0.40;0.40;;;23.30;44.30;;;;;;5058952;27;88475;-56
2023/01/06 06:17:12;;;;;;;0.53;0.50;;;23.30;44.30;;;;;;5063768;27;87127;-56
2023/01/06 06:19:40;;;;;;;0.57;0.50;;;23.20;44.20;;;;;;5063655;27;87174;-56
2023/01/06 06:22:08;;;;;;;0.53;0.40;;;23.20;44.30;;;;;;5043889;27;89225;-56
2023/01/06 06:24:37;;;;;;;0.30;0.30;;;23.20;44.30;;;;;;5052819;27;88129;-56
2023/01/06 06:27:05;;;;;;;1.50;0.50;;;23.20;44.30;;;;;;5054939;27;87059;-55
2023/01/06 06:29:35;;;;;;;0.37;0.37;;;23.20;44.30;;;;;;5042868;27;87105;-56
2023/01/06 06:32:03;;;;;;;0.27;0.27;;;23.20;44.30;;;;;;5042445;27;90115;-56
2023/01/06 06:34:31;;;;;;;0.43;0.43;;;23.20;44.30;;;;;;5055059;27;89882;-57
2023/01/06 06:36:59;;;;;;;0.30;0.30;;;23.20;44.40;;;;;;5059116;27;87075;-56
2023/01/06 06:39:27;;;;;;;0.30;0.30;;;23.20;44.40;;;;;;5044192;27;87086;-56
2023/01/06 06:41:55;;;;;;;0.20;0.20;;;23.10;44.30;;;;;;5061590;27;88149;-56
2023/01/06 06:44:23;;;;;;;0.40;0.40;;;23.10;44.30;;;;;;5058369;27;86897;-56
2023/01/06 06:46:52;;;;;;;0.63;0.30;;;23.10;44.40;;;;;;5055415;27;87111;-56
2023/01/06 06:49:20;;;;;;;0.50;0.50;;;23.10;44.40;;;;;;5049616;27;86246;-56
2023/01/06 06:51:48;;;;;;;0.20;0.20;;;23.10;44.40;;;;;;5042740;27;89126;-57
2023/01/06 06:54:16;;;;;;;0.30;0.30;;;23.10;44.40;;;;;;5060361;27;89004;-56
2023/01/06 06:56:44;;;;;;;0.50;0.50;;;23.10;44.40;;;;;;5047349;27;87954;-56
2023/01/06 06:59:12;;;;;;;0.40;0.40;;;23.00;44.30;;;;;;5062842;27;87011;-56
2023/01/06 07:01:40;;;;;;;0.83;0.20;;;23.00;44.30;;;;;;5062861;27;88169;-56
2023/01/06 07:04:10;;;;;;;1.40;0.40;;;23.00;44.30;;;;;;5060931;27;87709;-56
2023/01/06 07:06:38;;;;;;;0.60;0.60;;;23.00;44.30;;;;;;5050122;27;87095;-56
2023/01/06 07:09:06;;;;;;;0.40;0.40;;;23.00;44.30;;;;;;5054173;27;87118;-56
2023/01/06 07:11:34;;;;;;;0.60;0.40;;;23.00;44.40;;;;;;5042298;28;89347;-56
2023/01/06 07:14:02;;;;;;;1.50;0.43;;;23.00;44.40;;;;;;5042468;27;87946;-56
2023/01/06 07:16:30;;;;;;;1.40;0.30;;;23.00;44.40;;;;;;5042704;27;87197;-57
2023/01/06 07:18:58;;;;;;;0.57;0.40;;;23.00;44.40;;;;;;5042505;28;86830;-56
2023/01/06 07:21:28;;;;;;;0.40;0.40;;;23.00;44.40;;;;;;5041817;28;90119;-56
2023/01/06 07:23:56;;;;;;;0.40;0.40;;;23.00;44.40;;;;;;5041646;28;89931;-56
2023/01/06 07:26:24;;;;;;;0.43;0.40;;;23.00;44.40;;;;;;5042122;27;86988;-55
2023/01/06 07:28:52;;;;;;;0.43;0.43;;;23.00;44.40;;;;;;5042467;28;86990;-56
2023/01/06 07:31:20;;;;;;;0.30;0.30;;;22.90;44.40;;;;;;5042125;28;88480;-56
2023/01/06 07:33:48;;;;;;;1.30;0.37;;;23.00;44.50;;;;;;5042159;27;87739;-56
2023/01/06 07:36:16;;;;;;;0.20;0.20;;;22.90;44.40;;;;;;5041887;28;86908;-56
2023/01/06 07:38:45;;;;;;;0.60;0.30;;;22.90;44.40;;;;;;5042296;28;86369;-56
2023/01/06 07:41:13;;;;;;;0.80;0.73;;;22.90;44.40;;;;;;5041941;27;88075;-56
2023/01/06 07:43:41;;;;;;;0.37;0.37;;;22.90;44.50;;;;;;5047549;27;88924;-56
2023/01/06 07:46:09;;;;;;;0.30;0.30;;;22.90;44.50;;;;;;5059930;27;87979;-56
2023/01/06 07:48:38;;;;;;;0.40;0.40;;;22.90;44.50;;;;;;5047314;27;87046;-56
2023/01/06 07:51:06;;;;;;;0.30;0.30;;;22.90;44.50;;;;;;5052782;27;88275;-56
2023/01/06 07:53:35;;;;;;;0.90;0.40;;;22.80;44.40;;;;;;5042191;27;88828;-56
2023/01/06 07:56:04;;;;;;;1.20;0.50;;;22.80;44.40;;;;;;5042695;27;86998;-56
2023/01/06 07:58:32;;;;;;;0.23;0.23;;;22.80;44.40;;;;;;5055533;27;88676;-56
2023/01/06 08:01:05;;;;;;;0.80;0.47;;;22.80;44.40;;;;;;5059977;27;89385;-56
2023/01/06 08:03:33;;;;;;;0.30;0.30;;;22.80;44.50;;;;;;5060201;27;88782;-56
2023/01/06 08:06:06;;;;;;;0.20;0.20;;;22.80;44.40;;;;;;5048622;27;87060;-56
2023/01/06 08:08:36;;;;;;;2.30;0.60;;;22.80;44.50;;;;;;5082647;27;87014;-56
2023/01/06 08:11:05;;;;;;;0.23;0.23;;;22.80;44.50;;;;;;5073264;27;89113;-56
2023/01/06 08:13:34;;;;;;;0.40;0.40;;;22.80;44.50;;;;;;5062154;27;89843;-56
2023/01/06 08:16:04;;;;;;;0.57;0.40;;;22.80;44.50;;;;;;5062140;27;87092;-56
2023/01/06 08:18:32;;;;;;;0.57;0.30;;;22.70;44.40;;;;;;5061738;27;86988;-55
2023/01/06 08:21:01;;;;;;;0.40;0.40;;;22.80;44.50;;;;;;5061370;27;88060;-55
2023/01/06 08:23:29;;;;;;;0.50;0.50;;;22.80;44.60;;;;;;5061090;27;88872;-56
2023/01/06 08:26:02;;;;;;;0.27;0.20;;;22.80;44.60;;;;;;5061788;27;87032;-55
2023/01/06 08:28:31;;;;;;;0.60;0.40;;;22.80;44.60;;;;;;5062906;27;86175;-55
2023/01/06 08:30:59;;;;;;;0.20;0.20;;;22.90;44.50;;;;;;5061933;27;89282;-56
2023/01/06 08:33:27;;;;;;;2.53;0.40;;;23.00;44.40;;;;;;5061811;27;87882;-55
2023/01/06 08:35:58;;;;;;;0.60;0.30;;;23.20;44.40;;;;;;5061107;27;87960;-56
2023/01/06 08:38:26;;;;;;;0.20;0.20;;;23.40;44.30;;;;;;5061759;27;87081;-55
2023/01/06 08:40:54;;;;;;;0.20;0.20;;;23.60;44.20;;;;;;5061456;27;89262;-56
2023/01/06 08:43:22;;;;;;;0.40;0.40;;;23.90;44.20;;;;;;5061574;27;87905;-56
2023/01/06 08:45:52;;;;;;;0.40;0.40;;;24.10;44.10;;;;;;5061940;27;86921;-55
2023/01/06 08:48:20;;;;;;;0.60;0.53;;;24.30;43.90;;;;;;5061913;27;87028;-55
2023/01/06 08:50:48;;;;;;;0.53;0.37;;;24.50;43.80;;;;;;5062008;27;87775;-57
2023/01/06 08:53:16;;;;;;;0.40;0.40;;;24.70;43.70;;;;;;5065320;27;88995;-57
2023/01/06 08:55:44;;;;;;;0.30;0.30;;;24.90;43.60;;;;;;5065543;27;86929;-56
2023/01/06 08:58:12;;;;;;;0.27;0.27;;;25.10;43.50;;;;;;5065440;27;86831;-55
2023/01/06 09:00:41;;;;;;;0.20;0.20;;;25.30;43.40;;;;;;5064231;27;89268;-55
2023/01/06 09:03:10;;;;;;;0.57;0.47;;;25.40;43.30;;;;;;5064770;27;88868;-55
2023/01/06 09:05:38;;;;;;;0.23;0.23;;;25.50;43.10;;;;;;5065284;27;87016;-55
2023/01/06 09:08:07;;;;;;;0.77;0.60;;;25.70;43.10;;;;;;5065120;27;86968;-55
2023/01/06 09:10:37;;;;;;;0.93;0.53;;;25.80;43.00;;;;;;5064723;27;89104;-55
2023/01/06 09:13:05;;;;;;;0.67;0.40;;;25.90;42.80;;;;;;5064718;27;87447;-55
2023/01/06 09:15:33;;;;;;;0.30;0.30;;;26.00;42.80;;;;;;5065488;27;86849;-55
2023/01/06 09:18:01;;;;;;;0.40;0.30;;;26.10;42.70;;;;;;5065224;27;86225;-55
2023/01/06 09:20:32;;;;;;;0.40;0.40;;;26.10;42.70;;;;;;5065019;27;88947;-55
2023/01/06 09:23:00;;;;;;;0.50;0.50;;;26.10;42.70;;;;;;5064448;27;87709;-55
2023/01/06 09:25:28;;;;;;;0.77;0.57;;;26.10;42.70;;;;;;5064373;27;87771;-55
2023/01/06 09:27:57;;;;;;;0.10;0.10;;;26.00;42.60;;;;;;5064747;27;86903;-55
2023/01/06 09:30:25;;;;;;;2.83;0.53;;;26.10;42.60;;;;;;5064360;27;87109;-55
2023/01/06 09:32:53;;;;;;;0.30;0.30;;;26.10;42.60;;;;;;5064099;27;87933;-55
2023/01/06 09:35:21;;;;;;;0.50;0.40;;;26.20;42.50;;;;;;5064311;27;86874;-55
2023/01/06 09:37:51;;;;;;;0.30;0.30;;;26.30;42.40;;;;;;5064265;27;87082;-55
2023/01/06 09:40:22;;;;;;;0.30;0.30;;;26.40;42.30;;;;;;5064172;27;89109;-55
2023/01/06 09:43:00;;;;;;;0.30;0.30;;;26.60;42.30;;;;;;5064991;27;88785;-55
2023/01/06 09:45:33;;;;;;;1.83;0.73;;;26.70;42.20;;;;;;5064779;27;87063;-56
2023/01/06 09:48:02;;;;;;;2.40;0.50;;;26.80;42.10;;;;;;5064407;27;87004;-55
2023/01/06 09:50:31;;;;;;;3.43;0.53;;;26.90;41.90;;;;;;5063498;27;89070;-55
2023/01/06 09:53:02;;;;;;;0.40;0.40;;;27.00;41.90;;;;;;5063849;27;89793;-55
2023/01/06 09:55:32;;;;;;;0.47;0.20;;;27.00;41.90;;;;;;5064405;27;86921;-55
2023/01/06 09:58:03;;;;;;;1.00;0.30;;;27.00;41.80;;;;;;5064685;27;86856;-55
2023/01/06 10:00:35;;;;;;;1.43;0.23;;;27.10;41.80;;;;;;5064121;27;87036;-56
2023/01/06 10:03:03;;;;;;;0.30;0.30;;;27.00;41.70;;;;;;5062713;27;88045;-57
2023/01/06 10:05:34;;;;;;;0.20;0.20;;;27.10;41.80;;;;;;5064246;27;86850;-55
2023/01/06 10:08:08;;;;;;;0.20;0.20;;;27.10;41.70;;;;;;5064758;27;86573;-55
2023/01/06 10:10:39;;;;;;;0.30;0.20;;;27.10;41.70;;;;;;5063957;27;88097;-55
2023/01/06 10:13:17;;;;;;;0.50;0.20;;;27.20;41.60;;;;;;5064096;27;87803;-55
2023/01/06 10:15:48;;;;;;;1.97;0.40;;;27.30;41.60;;;;;;5063821;27;87984;-56
2023/01/06 10:18:27;;;;;;;1.13;0.37;;;27.40;41.50;;;;;;5063829;27;86961;-55
2023/01/06 10:20:59;;;;;;;0.87;0.40;;;27.40;41.50;;;;;;5063456;27;88995;-55
2023/01/06 10:23:56;;;;;;;0.40;0.30;;;27.50;41.40;;;;;;5063450;27;88898;-55
2023/01/06 10:26:28;;;;;;;0.40;0.40;;;27.50;41.40;;;;;;5038345;27;86780;-55
2023/01/06 10:28:59;;;;;;;0.20;0.20;;;27.40;41.30;;;;;;5063912;27;87043;-56
2023/01/06 10:31:28;;;;;;;0.30;0.30;;;27.40;41.40;;;;;;5064169;27;89146;-55
2023/01/06 10:33:57;;;;;;;0.73;0.43;;;27.40;41.40;;;;;;5064431;27;88824;-56
2023/01/06 10:36:27;;;;;;;0.57;0.50;;;27.30;42.00;;;;;;5063202;27;87095;-57
2023/01/06 10:38:57;;;;;;;0.50;0.30;;;27.20;41.40;;;;;;5063731;27;87012;-56
2023/01/06 10:41:34;;;;;;;0.30;0.30;;;27.10;41.40;;;;;;5063024;27;89099;-56
2023/01/06 10:44:02;;;;;;;0.53;0.30;;;27.10;41.50;;;;;;5063265;27;89880;-56
2023/01/06 10:46:33;;;;;;;0.47;0.30;;;27.00;41.50;;;;;;5063860;27;86874;-56
2023/01/06 10:49:01;;;;;;;0.60;0.40;;;26.90;41.60;;;;;;5063446;27;86691;-55
2023/01/06 10:51:34;;;;;;;0.47;0.47;;;26.90;41.60;;;;;;5063835;27;87981;-56
2023/01/06 10:54:07;;;;;;;0.30;0.30;;;26.80;41.70;;;;;;5063179;27;89039;-56
2023/01/06 10:56:35;;;;;;;0.53;0.27;;;26.70;41.70;;;;;;5063711;27;86992;-55
2023/01/06 10:59:06;;;;;;;0.27;0.27;;;26.70;41.80;;;;;;5064067;27;86246;-55
2023/01/06 11:01:36;;;;;;;0.20;0.20;;;26.60;41.80;;;;;;5062969;27;89243;-55
2023/01/06 11:04:06;;;;;;;0.20;0.20;;;26.50;41.80;;;;;;5062670;27;87771;-55
2023/01/06 11:06:34;;;;;;;0.70;0.30;;;26.40;41.80;;;;;;5062651;27;88063;-55
2023/01/06 11:09:08;;;;;;;0.40;0.40;;;26.40;41.90;;;;;;5063073;27;87108;-55
2023/01/06 11:11:45;;;;;;;2.00;0.40;;;26.40;42.00;;;;;;5062774;27;88582;-55
2023/01/06 11:14:15;;;;;;;0.20;0.20;;;26.30;42.00;;;;;;5061423;27;86829;-55
2023/01/06 11:16:43;;;;;;;0.20;0.13;;;26.20;42.00;;;;;;5062349;27;86853;-55
2023/01/06 11:19:29;;;;;;;2.40;0.50;;;26.20;42.00;;;;;;5063409;27;87056;-56
2023/01/06 11:21:58;;;;;;;0.17;0.17;;;26.10;42.10;;;;;;5062988;27;89390;-55
2023/01/06 11:24:27;;;;;;;0.70;0.40;;;26.10;42.10;;;;;;5061773;27;88844;-55
2023/01/06 11:26:56;;;;;;;0.93;0.10;;;26.10;42.20;;;;;;5062600;27;87037;-55
2023/01/06 11:29:26;;;;;;;0.67;0.20;;;26.00;42.10;;;;;;5062852;27;87055;-55
2023/01/06 11:31:55;;;;;;;0.33;0.20;;;26.00;42.30;;;;;;5061967;27;89071;-55
2023/01/06 11:34:23;;;;;;;0.73;0.50;;;25.90;42.20;;;;;;5062548;27;88986;-55
2023/01/06 11:36:52;;;;;;;0.40;0.30;;;25.90;42.20;;;;;;5062268;27;86901;-55
2023/01/06 11:39:25;;;;;;;0.67;0.40;;;25.90;42.30;;;;;;5062257;27;87163;-55
2023/01/06 11:41:55;;;;;;;0.20;0.20;;;25.80;42.30;;;;;;5061650;27;89068;-55
2023/01/06 11:44:29;;;;;;;0.30;0.20;;;25.80;42.30;;;;;;5062122;27;87831;-55
2023/01/06 11:46:59;;;;;;;0.17;0.17;;;25.80;42.40;;;;;;5062772;27;86735;-55
2023/01/06 11:49:29;;;;;;;0.10;0.10;;;25.80;42.40;;;;;;5062579;27;86284;-55
2023/01/06 11:52:02;;;;;;;0.10;0.10;;;25.70;42.40;;;;;;5061969;27;89031;-55
2023/01/06 11:54:33;;;;;;;0.47;0.20;;;25.70;42.40;;;;;;5061906;27;88864;-55
2023/01/06 11:57:12;;;;;;;0.20;0.20;;;25.70;42.40;;;;;;5062052;27;88010;-55
2023/01/06 12:00:01;;;;;;;0.20;0.20;;;25.60;42.40;;;;;;5062146;27;87016;-55
2023/01/06 12:02:32;;;;;;;1.97;0.63;;;25.60;42.40;;;;;;5059295;27;89042;-55
2023/01/06 12:05:01;;;;;;;1.33;0.40;;;25.60;42.50;;;;;;5062451;27;87765;-55
2023/01/06 12:07:30;;;;;;;0.30;0.30;;;25.60;42.50;;;;;;5062249;27;87020;-56
2023/01/06 12:09:59;;;;;;;0.30;0.30;;;25.50;42.50;;;;;;5062031;27;87039;-56
2023/01/06 12:12:29;;;;;;;0.97;0.40;;;25.50;42.50;;;;;;5060930;27;89145;-56
2023/01/06 12:14:57;;;;;;;0.10;0.10;;;25.50;42.50;;;;;;5061978;27;88993;-56
2023/01/06 12:17:34;;;;;;;0.30;0.30;;;25.50;42.50;;;;;;5061897;27;87075;-56
2023/01/06 12:20:05;;;;;;;0.40;0.40;;;25.40;42.50;;;;;;5062277;27;87067;-57
2023/01/06 12:22:36;;;;;;;1.63;0.50;;;25.40;42.50;;;;;;5061686;27;90299;-56
2023/01/06 12:25:05;;;;;;;0.80;0.30;;;25.40;42.60;;;;;;5061362;27;87488;-58
2023/01/06 12:27:37;;;;;;;0.50;0.43;;;25.40;42.60;;;;;;5061870;27;86939;-56
2023/01/06 12:30:07;;;;;;;0.50;0.50;;;25.40;42.60;;;;;;5061398;27;87015;-57
2023/01/06 12:32:37;;;;;;;0.80;0.20;;;25.40;42.60;;;;;;5061487;27;89150;-56
2023/01/06 12:35:08;;;;;;;0.33;0.33;;;25.40;42.60;;;;;;5061280;27;88891;-56
2023/01/06 12:37:38;;;;;;;0.80;0.37;;;25.40;42.60;;;;;;5061540;27;86807;-56
2023/01/06 12:40:12;;;;;;;1.20;0.80;;;25.30;42.50;;;;;;5061883;27;86190;-56
2023/01/06 12:42:44;;;;;;;0.63;0.30;;;25.30;42.50;;;;;;5061698;27;88125;-56
2023/01/06 12:45:14;;;;;;;1.40;0.63;;;25.30;42.50;;;;;;5061419;27;87012;-56
2023/01/06 12:47:44;;;;;;;0.67;0.30;;;25.30;42.60;;;;;;5060856;27;88523;-56
2023/01/06 12:50:17;;;;;;;0.43;0.43;;;25.30;42.60;;;;;;5061272;27;86953;-56
2023/01/06 12:52:47;;;;;;;0.50;0.30;;;25.30;42.60;;;;;;5061092;27;88050;-56
2023/01/06 12:55:25;;;;;;;0.40;0.40;;;25.30;42.60;;;;;;5061266;27;87721;-56
2023/01/06 12:57:58;;;;;;;0.20;0.20;;;25.30;42.70;;;;;;5061841;27;86889;-57
2023/01/06 13:00:32;;;;;;;1.00;0.60;;;25.30;42.70;;;;;;5061585;27;87075;-56
2023/01/06 13:03:33;;;;;;;0.30;0.30;;;25.20;42.70;;;;;;5061380;27;89122;-56
2023/01/06 13:06:11;;;;;;;1.00;0.40;;;25.20;42.70;;;;;;5061276;27;86828;-56
2023/01/06 13:08:50;;;;;;;0.50;0.37;;;25.20;42.70;;;;;;5061217;27;87000;-56
2023/01/06 13:11:22;;;;;;;0.27;0.27;;;25.10;42.80;;;;;;5061856;27;87007;-56
2023/01/06 13:13:59;;;;;;;0.40;0.40;;;25.10;42.80;;;;;;5060881;27;90135;-56
2023/01/06 13:16:30;;;;;;;1.17;0.40;;;25.10;42.80;;;;;;5060565;27;89882;-56
2023/01/06 13:19:07;;;;;;;0.40;0.40;;;25.10;42.80;;;;;;5061063;27;87087;-56
2023/01/06 13:21:35;;;;;;;0.30;0.30;;;25.00;43.50;;;;;;5061362;27;88077;-56
2023/01/06 13:24:12;;;;;;;0.67;0.57;;;25.00;42.90;;;;;;5060688;27;88303;-56
2023/01/06 13:27:09;;;;;;;1.17;0.33;;;25.00;42.90;;;;;;5060854;27;87833;-56
2023/01/06 13:29:48;;;;;;;0.37;0.37;;;25.00;42.90;;;;;;5061484;27;86845;-56